sensor_id;sensor_type;location;lat;lon;timestamp;P1;durP1;ratioP1;P2;durP2;ratioP2
4835;SDS011;66719;51.226;6.902;2024-03-22T00:02:02;52.53;;;25.87;;
4835;SDS011;66719;51.226;6.902;2024-03-22T00:04:28;44.03;;;24.50;;
4835;SDS011;66719;51.226;6.902;2024-03-22T00:06:53;40.00;;;22.10;;
4835;SDS011;66719;51.226;6.902;2024-03-22T00:09:19;46.07;;;23.13;;
4835;SDS011;66719;51.226;6.902;2024-03-22T00:11:45;44.50;;;23.90;;
4835;SDS011;66719;51.226;6.902;2024-03-22T00:14:11;48.33;;;24.37;;
4835;SDS011;66719;51.226;6.902;2024-03-22T00:16:37;45.90;;;24.23;;
4835;SDS011;66719;51.226;6.902;2024-03-22T00:19:03;44.80;;;24.87;;
4835;SDS011;66719;51.226;6.902;2024-03-22T00:21:29;47.80;;;24.70;;
4835;SDS011;66719;51.226;6.902;2024-03-22T00:23:55;53.60;;;25.50;;
4835;SDS011;66719;51.226;6.902;2024-03-22T00:26:21;42.97;;;23.20;;
4835;SDS011;66719;51.226;6.902;2024-03-22T00:28:47;45.87;;;24.33;;
4835;SDS011;66719;51.226;6.902;2024-03-22T00:31:13;49.27;;;25.33;;
4835;SDS011;66719;51.226;6.902;2024-03-22T00:33:39;49.70;;;24.20;;
4835;SDS011;66719;51.226;6.902;2024-03-22T00:36:04;44.70;;;22.83;;
4835;SDS011;66719;51.226;6.902;2024-03-22T00:38:31;46.30;;;22.53;;
4835;SDS011;66719;51.226;6.902;2024-03-22T00:40:57;47.80;;;23.37;;
4835;SDS011;66719;51.226;6.902;2024-03-22T00:43:23;45.30;;;23.00;;
4835;SDS011;66719;51.226;6.902;2024-03-22T00:45:49;44.40;;;22.70;;
4835;SDS011;66719;51.226;6.902;2024-03-22T00:48:14;44.57;;;22.30;;
4835;SDS011;66719;51.226;6.902;2024-03-22T00:50:41;48.30;;;23.50;;
4835;SDS011;66719;51.226;6.902;2024-03-22T00:53:06;41.37;;;21.53;;
4835;SDS011;66719;51.226;6.902;2024-03-22T00:55:33;43.00;;;21.40;;
4835;SDS011;66719;51.226;6.902;2024-03-22T00:57:59;43.73;;;22.93;;
4835;SDS011;66719;51.226;6.902;2024-03-22T01:00:25;43.43;;;22.33;;
4835;SDS011;66719;51.226;6.902;2024-03-22T01:02:50;39.70;;;21.07;;
4835;SDS011;66719;51.226;6.902;2024-03-22T01:05:16;48.07;;;23.60;;
4835;SDS011;66719;51.226;6.902;2024-03-22T01:07:43;42.53;;;21.60;;
4835;SDS011;66719;51.226;6.902;2024-03-22T01:10:09;43.37;;;22.80;;
4835;SDS011;66719;51.226;6.902;2024-03-22T01:12:36;41.80;;;20.93;;
4835;SDS011;66719;51.226;6.902;2024-03-22T01:15:01;46.20;;;21.40;;
4835;SDS011;66719;51.226;6.902;2024-03-22T01:17:28;45.00;;;23.33;;
4835;SDS011;66719;51.226;6.902;2024-03-22T01:19:54;45.60;;;22.10;;
4835;SDS011;66719;51.226;6.902;2024-03-22T01:22:20;45.87;;;22.87;;
4835;SDS011;66719;51.226;6.902;2024-03-22T01:24:45;42.67;;;22.63;;
4835;SDS011;66719;51.226;6.902;2024-03-22T01:27:11;41.63;;;21.57;;
4835;SDS011;66719;51.226;6.902;2024-03-22T01:29:37;42.30;;;21.07;;
4835;SDS011;66719;51.226;6.902;2024-03-22T01:32:03;47.47;;;19.50;;
4835;SDS011;66719;51.226;6.902;2024-03-22T01:34:29;42.80;;;21.53;;
4835;SDS011;66719;51.226;6.902;2024-03-22T01:36:54;40.00;;;21.07;;
4835;SDS011;66719;51.226;6.902;2024-03-22T01:39:20;38.17;;;19.83;;
4835;SDS011;66719;51.226;6.902;2024-03-22T01:41:50;39.80;;;20.70;;
4835;SDS011;66719;51.226;6.902;2024-03-22T01:44:16;39.33;;;21.10;;
4835;SDS011;66719;51.226;6.902;2024-03-22T01:46:43;37.60;;;20.50;;
4835;SDS011;66719;51.226;6.902;2024-03-22T01:49:10;43.30;;;21.57;;
4835;SDS011;66719;51.226;6.902;2024-03-22T01:51:40;41.10;;;20.40;;
4835;SDS011;66719;51.226;6.902;2024-03-22T01:54:06;43.80;;;20.70;;
4835;SDS011;66719;51.226;6.902;2024-03-22T01:56:36;39.07;;;20.60;;
4835;SDS011;66719;51.226;6.902;2024-03-22T01:59:02;38.30;;;19.83;;
4835;SDS011;66719;51.226;6.902;2024-03-22T02:01:29;37.57;;;19.93;;
4835;SDS011;66719;51.226;6.902;2024-03-22T02:03:55;35.40;;;19.70;;
4835;SDS011;66719;51.226;6.902;2024-03-22T02:06:20;35.73;;;18.57;;
4835;SDS011;66719;51.226;6.902;2024-03-22T02:08:46;37.43;;;20.00;;
4835;SDS011;66719;51.226;6.902;2024-03-22T02:11:12;37.97;;;20.47;;
4835;SDS011;66719;51.226;6.902;2024-03-22T02:13:37;37.43;;;19.40;;
4835;SDS011;66719;51.226;6.902;2024-03-22T02:16:03;38.30;;;19.60;;
4835;SDS011;66719;51.226;6.902;2024-03-22T02:18:29;36.63;;;19.90;;
4835;SDS011;66719;51.226;6.902;2024-03-22T02:20:56;40.93;;;21.67;;
4835;SDS011;66719;51.226;6.902;2024-03-22T02:23:43;43.50;;;21.53;;
4835;SDS011;66719;51.226;6.902;2024-03-22T02:26:08;30.90;;;17.43;;
4835;SDS011;66719;51.226;6.902;2024-03-22T02:28:34;39.63;;;19.07;;
4835;SDS011;66719;51.226;6.902;2024-03-22T02:31:01;37.27;;;20.23;;
4835;SDS011;66719;51.226;6.902;2024-03-22T02:33:30;34.30;;;18.80;;
4835;SDS011;66719;51.226;6.902;2024-03-22T02:35:55;36.80;;;19.23;;
4835;SDS011;66719;51.226;6.902;2024-03-22T02:38:22;34.50;;;19.10;;
4835;SDS011;66719;51.226;6.902;2024-03-22T02:40:48;31.53;;;18.20;;
4835;SDS011;66719;51.226;6.902;2024-03-22T02:43:15;33.30;;;17.53;;
4835;SDS011;66719;51.226;6.902;2024-03-22T02:45:42;35.60;;;18.60;;
4835;SDS011;66719;51.226;6.902;2024-03-22T02:48:29;35.13;;;18.93;;
4835;SDS011;66719;51.226;6.902;2024-03-22T02:50:57;32.70;;;17.60;;
4835;SDS011;66719;51.226;6.902;2024-03-22T02:53:23;35.17;;;17.53;;
4835;SDS011;66719;51.226;6.902;2024-03-22T02:55:48;37.03;;;18.27;;
4835;SDS011;66719;51.226;6.902;2024-03-22T02:58:14;31.33;;;17.90;;
4835;SDS011;66719;51.226;6.902;2024-03-22T03:00:39;31.03;;;17.67;;
4835;SDS011;66719;51.226;6.902;2024-03-22T03:03:05;40.27;;;18.80;;
4835;SDS011;66719;51.226;6.902;2024-03-22T03:05:31;33.77;;;18.63;;
4835;SDS011;66719;51.226;6.902;2024-03-22T03:07:57;32.00;;;17.20;;
4835;SDS011;66719;51.226;6.902;2024-03-22T03:10:23;31.80;;;17.47;;
4835;SDS011;66719;51.226;6.902;2024-03-22T03:12:48;33.77;;;18.17;;
4835;SDS011;66719;51.226;6.902;2024-03-22T03:15:15;33.83;;;17.27;;
4835;SDS011;66719;51.226;6.902;2024-03-22T03:17:41;35.33;;;18.00;;
4835;SDS011;66719;51.226;6.902;2024-03-22T03:20:07;32.80;;;17.10;;
4835;SDS011;66719;51.226;6.902;2024-03-22T03:22:35;29.73;;;16.40;;
4835;SDS011;66719;51.226;6.902;2024-03-22T03:25:03;32.63;;;16.20;;
4835;SDS011;66719;51.226;6.902;2024-03-22T03:27:29;29.60;;;17.00;;
4835;SDS011;66719;51.226;6.902;2024-03-22T03:29:55;29.00;;;16.77;;
4835;SDS011;66719;51.226;6.902;2024-03-22T03:32:21;32.87;;;16.80;;
4835;SDS011;66719;51.226;6.902;2024-03-22T03:34:46;29.67;;;16.60;;
4835;SDS011;66719;51.226;6.902;2024-03-22T03:37:12;32.87;;;18.77;;
4835;SDS011;66719;51.226;6.902;2024-03-22T03:39:37;31.23;;;16.70;;
4835;SDS011;66719;51.226;6.902;2024-03-22T03:42:03;30.87;;;16.00;;
4835;SDS011;66719;51.226;6.902;2024-03-22T03:44:29;31.87;;;16.10;;
4835;SDS011;66719;51.226;6.902;2024-03-22T03:46:54;31.30;;;17.10;;
4835;SDS011;66719;51.226;6.902;2024-03-22T03:49:20;29.47;;;16.27;;
4835;SDS011;66719;51.226;6.902;2024-03-22T03:51:45;29.27;;;15.87;;
4835;SDS011;66719;51.226;6.902;2024-03-22T03:54:11;30.97;;;16.13;;
4835;SDS011;66719;51.226;6.902;2024-03-22T03:56:37;29.97;;;16.80;;
4835;SDS011;66719;51.226;6.902;2024-03-22T03:59:02;29.90;;;16.60;;
4835;SDS011;66719;51.226;6.902;2024-03-22T04:01:28;32.70;;;16.50;;
4835;SDS011;66719;51.226;6.902;2024-03-22T04:03:54;31.00;;;15.73;;
4835;SDS011;66719;51.226;6.902;2024-03-22T04:06:19;32.63;;;17.80;;
4835;SDS011;66719;51.226;6.902;2024-03-22T04:08:45;30.43;;;15.40;;
4835;SDS011;66719;51.226;6.902;2024-03-22T04:11:10;27.97;;;16.17;;
4835;SDS011;66719;51.226;6.902;2024-03-22T04:13:37;31.53;;;16.53;;
4835;SDS011;66719;51.226;6.902;2024-03-22T04:16:02;31.90;;;16.80;;
4835;SDS011;66719;51.226;6.902;2024-03-22T04:18:28;29.93;;;15.23;;
4835;SDS011;66719;51.226;6.902;2024-03-22T04:20:57;26.30;;;15.70;;
4835;SDS011;66719;51.226;6.902;2024-03-22T04:23:26;29.20;;;15.97;;
4835;SDS011;66719;51.226;6.902;2024-03-22T04:25:56;29.10;;;15.13;;
4835;SDS011;66719;51.226;6.902;2024-03-22T04:28:27;30.83;;;16.67;;
4835;SDS011;66719;51.226;6.902;2024-03-22T04:30:54;24.83;;;14.80;;
4835;SDS011;66719;51.226;6.902;2024-03-22T04:33:36;30.47;;;16.13;;
4835;SDS011;66719;51.226;6.902;2024-03-22T04:36:03;27.93;;;15.17;;
4835;SDS011;66719;51.226;6.902;2024-03-22T04:38:29;29.80;;;16.50;;
4835;SDS011;66719;51.226;6.902;2024-03-22T04:40:55;28.73;;;16.80;;
4835;SDS011;66719;51.226;6.902;2024-03-22T04:43:25;27.97;;;15.93;;
4835;SDS011;66719;51.226;6.902;2024-03-22T04:45:51;28.80;;;15.17;;
4835;SDS011;66719;51.226;6.902;2024-03-22T04:48:18;31.27;;;16.40;;
4835;SDS011;66719;51.226;6.902;2024-03-22T04:50:51;25.37;;;14.33;;
4835;SDS011;66719;51.226;6.902;2024-03-22T04:53:17;30.10;;;15.40;;
4835;SDS011;66719;51.226;6.902;2024-03-22T04:55:44;29.33;;;14.40;;
4835;SDS011;66719;51.226;6.902;2024-03-22T04:58:19;28.43;;;15.17;;
4835;SDS011;66719;51.226;6.902;2024-03-22T05:00:49;29.07;;;15.77;;
4835;SDS011;66719;51.226;6.902;2024-03-22T05:03:21;29.87;;;15.70;;
4835;SDS011;66719;51.226;6.902;2024-03-22T05:05:46;29.00;;;15.40;;
4835;SDS011;66719;51.226;6.902;2024-03-22T05:08:12;31.30;;;16.60;;
4835;SDS011;66719;51.226;6.902;2024-03-22T05:10:37;30.13;;;14.90;;
4835;SDS011;66719;51.226;6.902;2024-03-22T05:13:03;31.20;;;14.87;;
4835;SDS011;66719;51.226;6.902;2024-03-22T05:15:29;39.00;;;15.43;;
4835;SDS011;66719;51.226;6.902;2024-03-22T05:17:55;25.03;;;14.40;;
4835;SDS011;66719;51.226;6.902;2024-03-22T05:20:22;28.23;;;14.27;;
4835;SDS011;66719;51.226;6.902;2024-03-22T05:22:48;31.30;;;14.83;;
4835;SDS011;66719;51.226;6.902;2024-03-22T05:25:13;28.37;;;15.30;;
4835;SDS011;66719;51.226;6.902;2024-03-22T05:27:40;28.80;;;16.20;;
4835;SDS011;66719;51.226;6.902;2024-03-22T05:30:10;29.30;;;15.67;;
4835;SDS011;66719;51.226;6.902;2024-03-22T05:32:37;33.87;;;15.83;;
4835;SDS011;66719;51.226;6.902;2024-03-22T05:35:03;30.17;;;15.13;;
4835;SDS011;66719;51.226;6.902;2024-03-22T05:37:29;27.20;;;14.50;;
4835;SDS011;66719;51.226;6.902;2024-03-22T05:39:55;29.67;;;14.93;;
4835;SDS011;66719;51.226;6.902;2024-03-22T05:42:21;32.43;;;15.50;;
4835;SDS011;66719;51.226;6.902;2024-03-22T05:44:47;28.70;;;15.10;;
4835;SDS011;66719;51.226;6.902;2024-03-22T05:47:13;29.43;;;14.90;;
4835;SDS011;66719;51.226;6.902;2024-03-22T05:49:38;28.07;;;14.50;;
4835;SDS011;66719;51.226;6.902;2024-03-22T05:52:04;27.80;;;13.60;;
4835;SDS011;66719;51.226;6.902;2024-03-22T05:54:30;24.97;;;14.50;;
4835;SDS011;66719;51.226;6.902;2024-03-22T05:56:55;28.97;;;14.73;;
4835;SDS011;66719;51.226;6.902;2024-03-22T05:59:21;32.27;;;14.93;;
4835;SDS011;66719;51.226;6.902;2024-03-22T06:01:47;28.00;;;15.07;;
4835;SDS011;66719;51.226;6.902;2024-03-22T06:04:12;33.77;;;15.13;;
4835;SDS011;66719;51.226;6.902;2024-03-22T06:06:38;28.57;;;15.43;;
4835;SDS011;66719;51.226;6.902;2024-03-22T06:09:04;29.80;;;14.13;;
4835;SDS011;66719;51.226;6.902;2024-03-22T06:11:33;29.00;;;14.83;;
4835;SDS011;66719;51.226;6.902;2024-03-22T06:13:59;28.20;;;15.17;;
4835;SDS011;66719;51.226;6.902;2024-03-22T06:16:25;29.57;;;14.70;;
4835;SDS011;66719;51.226;6.902;2024-03-22T06:18:51;27.40;;;14.83;;
4835;SDS011;66719;51.226;6.902;2024-03-22T06:21:17;29.10;;;14.97;;
4835;SDS011;66719;51.226;6.902;2024-03-22T06:23:50;27.30;;;15.30;;
4835;SDS011;66719;51.226;6.902;2024-03-22T06:26:16;30.03;;;15.37;;
4835;SDS011;66719;51.226;6.902;2024-03-22T06:28:43;29.17;;;14.53;;
4835;SDS011;66719;51.226;6.902;2024-03-22T06:31:08;33.53;;;14.87;;
4835;SDS011;66719;51.226;6.902;2024-03-22T06:33:34;33.57;;;18.97;;
4835;SDS011;66719;51.226;6.902;2024-03-22T06:36:00;29.40;;;16.70;;
4835;SDS011;66719;51.226;6.902;2024-03-22T06:38:47;29.30;;;16.00;;
4835;SDS011;66719;51.226;6.902;2024-03-22T06:41:11;27.13;;;15.23;;
4835;SDS011;66719;51.226;6.902;2024-03-22T06:43:37;32.90;;;16.03;;
4835;SDS011;66719;51.226;6.902;2024-03-22T06:46:03;27.70;;;15.80;;
4835;SDS011;66719;51.226;6.902;2024-03-22T06:48:28;28.80;;;15.60;;
4835;SDS011;66719;51.226;6.902;2024-03-22T06:50:54;39.00;;;20.23;;
4835;SDS011;66719;51.226;6.902;2024-03-22T06:53:19;38.40;;;22.47;;
4835;SDS011;66719;51.226;6.902;2024-03-22T06:55:45;28.10;;;15.73;;
4835;SDS011;66719;51.226;6.902;2024-03-22T06:58:11;33.57;;;17.83;;
4835;SDS011;66719;51.226;6.902;2024-03-22T07:00:36;30.47;;;16.57;;
4835;SDS011;66719;51.226;6.902;2024-03-22T07:03:02;27.87;;;16.70;;
4835;SDS011;66719;51.226;6.902;2024-03-22T07:05:28;33.87;;;17.77;;
4835;SDS011;66719;51.226;6.902;2024-03-22T07:07:54;35.70;;;16.33;;
4835;SDS011;66719;51.226;6.902;2024-03-22T07:10:23;33.83;;;17.40;;
4835;SDS011;66719;51.226;6.902;2024-03-22T07:12:53;33.43;;;18.33;;
4835;SDS011;66719;51.226;6.902;2024-03-22T07:15:20;38.30;;;19.47;;
4835;SDS011;66719;51.226;6.902;2024-03-22T07:17:47;33.07;;;18.50;;
4835;SDS011;66719;51.226;6.902;2024-03-22T07:20:13;30.10;;;17.17;;
4835;SDS011;66719;51.226;6.902;2024-03-22T07:22:38;33.63;;;17.70;;
4835;SDS011;66719;51.226;6.902;2024-03-22T07:25:04;39.07;;;20.30;;
4835;SDS011;66719;51.226;6.902;2024-03-22T07:27:30;35.93;;;19.17;;
4835;SDS011;66719;51.226;6.902;2024-03-22T07:29:56;43.17;;;20.13;;
4835;SDS011;66719;51.226;6.902;2024-03-22T07:32:22;32.87;;;18.93;;
4835;SDS011;66719;51.226;6.902;2024-03-22T07:34:48;38.67;;;20.37;;
4835;SDS011;66719;51.226;6.902;2024-03-22T07:37:14;44.73;;;22.10;;
4835;SDS011;66719;51.226;6.902;2024-03-22T07:39:39;39.20;;;23.10;;
4835;SDS011;66719;51.226;6.902;2024-03-22T07:42:05;41.10;;;23.00;;
4835;SDS011;66719;51.226;6.902;2024-03-22T07:44:31;38.90;;;24.33;;
4835;SDS011;66719;51.226;6.902;2024-03-22T07:46:56;41.07;;;23.47;;
4835;SDS011;66719;51.226;6.902;2024-03-22T07:49:22;39.20;;;23.30;;
4835;SDS011;66719;51.226;6.902;2024-03-22T07:51:47;39.10;;;22.83;;
4835;SDS011;66719;51.226;6.902;2024-03-22T07:54:13;43.37;;;24.83;;
4835;SDS011;66719;51.226;6.902;2024-03-22T07:56:39;41.30;;;24.23;;
4835;SDS011;66719;51.226;6.902;2024-03-22T07:59:05;45.37;;;24.57;;
4835;SDS011;66719;51.226;6.902;2024-03-22T08:01:31;40.70;;;24.00;;
4835;SDS011;66719;51.226;6.902;2024-03-22T08:03:56;39.93;;;22.87;;
4835;SDS011;66719;51.226;6.902;2024-03-22T08:06:22;47.13;;;25.37;;
4835;SDS011;66719;51.226;6.902;2024-03-22T08:08:48;43.40;;;23.70;;
4835;SDS011;66719;51.226;6.902;2024-03-22T08:11:13;43.60;;;21.83;;
4835;SDS011;66719;51.226;6.902;2024-03-22T08:13:39;39.90;;;23.10;;
4835;SDS011;66719;51.226;6.902;2024-03-22T08:16:05;45.70;;;24.00;;
4835;SDS011;66719;51.226;6.902;2024-03-22T08:18:31;42.43;;;23.03;;
4835;SDS011;66719;51.226;6.902;2024-03-22T08:20:58;39.87;;;23.00;;
4835;SDS011;66719;51.226;6.902;2024-03-22T08:23:24;41.17;;;23.70;;
4835;SDS011;66719;51.226;6.902;2024-03-22T08:25:50;43.23;;;23.47;;
4835;SDS011;66719;51.226;6.902;2024-03-22T08:28:15;41.27;;;22.10;;
4835;SDS011;66719;51.226;6.902;2024-03-22T08:30:42;37.40;;;21.60;;
4835;SDS011;66719;51.226;6.902;2024-03-22T08:33:09;39.70;;;22.93;;
4835;SDS011;66719;51.226;6.902;2024-03-22T08:35:35;39.67;;;22.93;;
4835;SDS011;66719;51.226;6.902;2024-03-22T08:38:01;42.27;;;22.43;;
4835;SDS011;66719;51.226;6.902;2024-03-22T08:40:26;40.47;;;22.33;;
4835;SDS011;66719;51.226;6.902;2024-03-22T08:42:52;38.57;;;21.30;;
4835;SDS011;66719;51.226;6.902;2024-03-22T08:45:18;34.30;;;20.10;;
4835;SDS011;66719;51.226;6.902;2024-03-22T08:47:43;38.83;;;21.03;;
4835;SDS011;66719;51.226;6.902;2024-03-22T08:50:11;41.57;;;22.07;;
4835;SDS011;66719;51.226;6.902;2024-03-22T08:52:37;35.20;;;19.73;;
4835;SDS011;66719;51.226;6.902;2024-03-22T08:55:03;36.23;;;20.27;;
4835;SDS011;66719;51.226;6.902;2024-03-22T08:57:31;34.27;;;20.43;;
4835;SDS011;66719;51.226;6.902;2024-03-22T08:59:57;37.87;;;20.97;;
4835;SDS011;66719;51.226;6.902;2024-03-22T09:02:22;38.37;;;19.10;;
4835;SDS011;66719;51.226;6.902;2024-03-22T09:04:48;31.20;;;19.17;;
4835;SDS011;66719;51.226;6.902;2024-03-22T09:07:14;33.93;;;18.70;;
4835;SDS011;66719;51.226;6.902;2024-03-22T09:09:40;44.67;;;18.30;;
4835;SDS011;66719;51.226;6.902;2024-03-22T09:12:06;31.73;;;17.97;;
4835;SDS011;66719;51.226;6.902;2024-03-22T09:14:32;29.77;;;18.50;;
4835;SDS011;66719;51.226;6.902;2024-03-22T09:16:58;34.93;;;20.13;;
4835;SDS011;66719;51.226;6.902;2024-03-22T09:19:24;33.20;;;18.37;;
4835;SDS011;66719;51.226;6.902;2024-03-22T09:21:49;32.03;;;17.57;;
4835;SDS011;66719;51.226;6.902;2024-03-22T09:24:15;32.40;;;17.33;;
4835;SDS011;66719;51.226;6.902;2024-03-22T09:26:41;36.20;;;17.07;;
4835;SDS011;66719;51.226;6.902;2024-03-22T09:29:06;33.50;;;17.93;;
4835;SDS011;66719;51.226;6.902;2024-03-22T09:31:32;38.60;;;18.03;;
4835;SDS011;66719;51.226;6.902;2024-03-22T09:33:58;31.20;;;16.60;;
4835;SDS011;66719;51.226;6.902;2024-03-22T09:36:24;36.83;;;17.67;;
4835;SDS011;66719;51.226;6.902;2024-03-22T09:38:50;27.40;;;15.50;;
4835;SDS011;66719;51.226;6.902;2024-03-22T09:41:18;28.07;;;14.37;;
4835;SDS011;66719;51.226;6.902;2024-03-22T09:43:51;25.27;;;14.23;;
4835;SDS011;66719;51.226;6.902;2024-03-22T09:46:20;29.07;;;14.30;;
4835;SDS011;66719;51.226;6.902;2024-03-22T09:48:47;28.37;;;15.07;;
4835;SDS011;66719;51.226;6.902;2024-03-22T09:51:13;31.73;;;14.50;;
4835;SDS011;66719;51.226;6.902;2024-03-22T09:53:43;23.87;;;13.87;;
4835;SDS011;66719;51.226;6.902;2024-03-22T09:56:09;25.13;;;13.93;;
4835;SDS011;66719;51.226;6.902;2024-03-22T09:58:39;26.17;;;13.10;;
4835;SDS011;66719;51.226;6.902;2024-03-22T10:01:08;29.60;;;14.37;;
4835;SDS011;66719;51.226;6.902;2024-03-22T10:03:35;24.60;;;13.03;;
4835;SDS011;66719;51.226;6.902;2024-03-22T10:06:02;27.63;;;12.87;;
4835;SDS011;66719;51.226;6.902;2024-03-22T10:08:27;27.30;;;13.63;;
4835;SDS011;66719;51.226;6.902;2024-03-22T10:10:53;21.63;;;11.60;;
4835;SDS011;66719;51.226;6.902;2024-03-22T10:13:19;24.13;;;14.03;;
4835;SDS011;66719;51.226;6.902;2024-03-22T10:15:45;23.67;;;12.20;;
4835;SDS011;66719;51.226;6.902;2024-03-22T10:18:11;25.43;;;13.30;;
4835;SDS011;66719;51.226;6.902;2024-03-22T10:20:37;25.50;;;12.87;;
4835;SDS011;66719;51.226;6.902;2024-03-22T10:23:03;22.87;;;12.60;;
4835;SDS011;66719;51.226;6.902;2024-03-22T10:25:29;29.17;;;14.20;;
4835;SDS011;66719;51.226;6.902;2024-03-22T10:27:55;25.93;;;12.93;;
4835;SDS011;66719;51.226;6.902;2024-03-22T10:30:22;25.10;;;13.63;;
4835;SDS011;66719;51.226;6.902;2024-03-22T10:32:51;29.30;;;14.10;;
4835;SDS011;66719;51.226;6.902;2024-03-22T10:35:17;24.13;;;13.80;;
4835;SDS011;66719;51.226;6.902;2024-03-22T10:37:44;23.63;;;13.40;;
4835;SDS011;66719;51.226;6.902;2024-03-22T10:40:10;27.73;;;13.10;;
4835;SDS011;66719;51.226;6.902;2024-03-22T10:42:37;22.60;;;12.70;;
4835;SDS011;66719;51.226;6.902;2024-03-22T10:45:07;25.00;;;13.00;;
4835;SDS011;66719;51.226;6.902;2024-03-22T10:47:35;24.13;;;13.20;;
4835;SDS011;66719;51.226;6.902;2024-03-22T10:50:10;27.03;;;13.83;;
4835;SDS011;66719;51.226;6.902;2024-03-22T10:55:06;30.67;;;14.90;;
4835;SDS011;66719;51.226;6.902;2024-03-22T10:57:36;25.60;;;14.03;;
4835;SDS011;66719;51.226;6.902;2024-03-22T11:00:08;31.60;;;16.20;;
4835;SDS011;66719;51.226;6.902;2024-03-22T11:02:35;29.00;;;15.00;;
4835;SDS011;66719;51.226;6.902;2024-03-22T11:05:02;29.80;;;15.27;;
4835;SDS011;66719;51.226;6.902;2024-03-22T11:07:32;25.80;;;14.27;;
4835;SDS011;66719;51.226;6.902;2024-03-22T11:10:00;29.23;;;14.23;;
4835;SDS011;66719;51.226;6.902;2024-03-22T11:12:31;27.47;;;14.10;;
4835;SDS011;66719;51.226;6.902;2024-03-22T11:14:59;26.40;;;14.03;;
4835;SDS011;66719;51.226;6.902;2024-03-22T11:17:25;29.07;;;15.00;;
4835;SDS011;66719;51.226;6.902;2024-03-22T11:19:51;27.70;;;14.93;;
4835;SDS011;66719;51.226;6.902;2024-03-22T11:22:17;24.80;;;14.20;;
4835;SDS011;66719;51.226;6.902;2024-03-22T11:24:43;25.10;;;13.40;;
4835;SDS011;66719;51.226;6.902;2024-03-22T11:27:09;25.17;;;14.10;;
4835;SDS011;66719;51.226;6.902;2024-03-22T11:29:36;30.03;;;14.83;;
4835;SDS011;66719;51.226;6.902;2024-03-22T11:32:06;30.17;;;14.07;;
4835;SDS011;66719;51.226;6.902;2024-03-22T11:34:35;32.33;;;14.07;;
4835;SDS011;66719;51.226;6.902;2024-03-22T11:37:02;29.20;;;14.00;;
4835;SDS011;66719;51.226;6.902;2024-03-22T11:39:28;23.20;;;13.07;;
4835;SDS011;66719;51.226;6.902;2024-03-22T11:41:53;27.17;;;14.50;;
4835;SDS011;66719;51.226;6.902;2024-03-22T11:44:19;25.87;;;13.20;;
4835;SDS011;66719;51.226;6.902;2024-03-22T11:46:51;37.00;;;14.33;;
4835;SDS011;66719;51.226;6.902;2024-03-22T11:49:17;28.23;;;12.50;;
4835;SDS011;66719;51.226;6.902;2024-03-22T11:51:44;25.50;;;12.10;;
4835;SDS011;66719;51.226;6.902;2024-03-22T11:54:10;22.87;;;12.40;;
4835;SDS011;66719;51.226;6.902;2024-03-22T11:56:36;25.23;;;12.50;;
4835;SDS011;66719;51.226;6.902;2024-03-22T11:59:02;24.23;;;11.80;;
4835;SDS011;66719;51.226;6.902;2024-03-22T12:01:31;23.50;;;11.90;;
4835;SDS011;66719;51.226;6.902;2024-03-22T12:03:58;22.60;;;12.00;;
4835;SDS011;66719;51.226;6.902;2024-03-22T12:06:24;23.93;;;12.20;;
4835;SDS011;66719;51.226;6.902;2024-03-22T12:08:50;29.17;;;12.70;;
4835;SDS011;66719;51.226;6.902;2024-03-22T12:11:16;24.40;;;12.10;;
4835;SDS011;66719;51.226;6.902;2024-03-22T12:13:41;28.30;;;12.03;;
4835;SDS011;66719;51.226;6.902;2024-03-22T12:16:07;21.47;;;11.90;;
4835;SDS011;66719;51.226;6.902;2024-03-22T12:18:33;24.20;;;13.20;;
4835;SDS011;66719;51.226;6.902;2024-03-22T12:20:59;25.73;;;12.93;;
4835;SDS011;66719;51.226;6.902;2024-03-22T12:23:25;25.93;;;12.73;;
4835;SDS011;66719;51.226;6.902;2024-03-22T12:25:51;27.07;;;13.40;;
4835;SDS011;66719;51.226;6.902;2024-03-22T12:28:18;23.83;;;13.00;;
4835;SDS011;66719;51.226;6.902;2024-03-22T12:30:44;23.33;;;11.80;;
4835;SDS011;66719;51.226;6.902;2024-03-22T12:33:10;23.30;;;11.83;;
4835;SDS011;66719;51.226;6.902;2024-03-22T12:35:39;24.20;;;12.97;;
4835;SDS011;66719;51.226;6.902;2024-03-22T12:38:05;25.23;;;13.23;;
4835;SDS011;66719;51.226;6.902;2024-03-22T12:40:34;24.53;;;13.43;;
4835;SDS011;66719;51.226;6.902;2024-03-22T12:42:59;23.53;;;12.80;;
4835;SDS011;66719;51.226;6.902;2024-03-22T12:45:25;29.30;;;14.60;;
4835;SDS011;66719;51.226;6.902;2024-03-22T12:47:51;29.33;;;14.50;;
4835;SDS011;66719;51.226;6.902;2024-03-22T12:50:17;23.47;;;13.33;;
4835;SDS011;66719;51.226;6.902;2024-03-22T12:52:42;26.07;;;14.40;;
4835;SDS011;66719;51.226;6.902;2024-03-22T12:55:09;24.50;;;14.77;;
4835;SDS011;66719;51.226;6.902;2024-03-22T12:57:35;27.33;;;15.03;;
4835;SDS011;66719;51.226;6.902;2024-03-22T13:00:01;23.97;;;14.27;;
4835;SDS011;66719;51.226;6.902;2024-03-22T13:02:28;27.23;;;14.60;;
4835;SDS011;66719;51.226;6.902;2024-03-22T13:04:54;28.20;;;15.53;;
4835;SDS011;66719;51.226;6.902;2024-03-22T13:07:20;29.50;;;14.73;;
4835;SDS011;66719;51.226;6.902;2024-03-22T13:09:47;25.43;;;15.20;;
4835;SDS011;66719;51.226;6.902;2024-03-22T13:12:12;25.67;;;14.63;;
4835;SDS011;66719;51.226;6.902;2024-03-22T13:14:38;23.87;;;13.90;;
4835;SDS011;66719;51.226;6.902;2024-03-22T13:17:04;27.53;;;13.77;;
4835;SDS011;66719;51.226;6.902;2024-03-22T13:19:29;25.57;;;13.80;;
4835;SDS011;66719;51.226;6.902;2024-03-22T13:21:55;23.07;;;14.37;;
4835;SDS011;66719;51.226;6.902;2024-03-22T13:24:21;26.30;;;15.00;;
4835;SDS011;66719;51.226;6.902;2024-03-22T13:26:46;25.23;;;14.33;;
4835;SDS011;66719;51.226;6.902;2024-03-22T13:29:12;26.50;;;13.90;;
4835;SDS011;66719;51.226;6.902;2024-03-22T13:31:39;25.50;;;15.47;;
4835;SDS011;66719;51.226;6.902;2024-03-22T13:34:05;34.80;;;14.60;;
4835;SDS011;66719;51.226;6.902;2024-03-22T13:36:30;24.63;;;13.70;;
4835;SDS011;66719;51.226;6.902;2024-03-22T13:38:58;25.63;;;14.50;;
4835;SDS011;66719;51.226;6.902;2024-03-22T13:41:24;24.70;;;14.60;;
4835;SDS011;66719;51.226;6.902;2024-03-22T13:43:50;24.70;;;13.47;;
4835;SDS011;66719;51.226;6.902;2024-03-22T13:46:16;23.80;;;12.80;;
4835;SDS011;66719;51.226;6.902;2024-03-22T13:48:42;24.70;;;12.30;;
4835;SDS011;66719;51.226;6.902;2024-03-22T13:51:08;21.63;;;9.80;;
4835;SDS011;66719;51.226;6.902;2024-03-22T13:53:34;19.67;;;10.30;;
4835;SDS011;66719;51.226;6.902;2024-03-22T13:56:02;19.83;;;9.10;;
4835;SDS011;66719;51.226;6.902;2024-03-22T13:58:27;28.83;;;10.90;;
4835;SDS011;66719;51.226;6.902;2024-03-22T14:00:53;20.33;;;10.07;;
4835;SDS011;66719;51.226;6.902;2024-03-22T14:03:19;19.97;;;10.60;;
4835;SDS011;66719;51.226;6.902;2024-03-22T14:05:45;19.80;;;10.50;;
4835;SDS011;66719;51.226;6.902;2024-03-22T14:08:11;19.83;;;11.17;;
4835;SDS011;66719;51.226;6.902;2024-03-22T14:10:37;24.77;;;12.80;;
4835;SDS011;66719;51.226;6.902;2024-03-22T14:13:03;20.70;;;11.73;;
4835;SDS011;66719;51.226;6.902;2024-03-22T14:15:29;24.87;;;12.07;;
4835;SDS011;66719;51.226;6.902;2024-03-22T14:17:57;20.87;;;10.67;;
4835;SDS011;66719;51.226;6.902;2024-03-22T14:20:23;22.63;;;11.80;;
4835;SDS011;66719;51.226;6.902;2024-03-22T14:22:50;20.23;;;11.63;;
4835;SDS011;66719;51.226;6.902;2024-03-22T14:25:16;21.93;;;11.90;;
4835;SDS011;66719;51.226;6.902;2024-03-22T14:27:42;21.33;;;10.63;;
4835;SDS011;66719;51.226;6.902;2024-03-22T14:30:11;23.50;;;11.30;;
4835;SDS011;66719;51.226;6.902;2024-03-22T14:32:40;21.63;;;11.77;;
4835;SDS011;66719;51.226;6.902;2024-03-22T14:35:07;23.20;;;11.83;;